sensor_id;sensor_type;location;lat;lon;timestamp;temperature;humidity
75786;DHT22;64402;44.708;37.644;2023-03-14T01:25:28;4.30;74.71
75786;DHT22;64402;44.708;37.644;2023-03-14T01:27:56;4.28;74.58
75786;DHT22;64402;44.708;37.644;2023-03-14T01:30:22;4.27;74.61
75786;DHT22;64402;44.708;37.644;2023-03-14T01:32:48;4.24;74.64
75786;DHT22;64402;44.708;37.644;2023-03-14T01:35:14;4.27;74.51
75786;DHT22;64402;44.708;37.644;2023-03-14T01:37:40;4.28;74.47
75786;DHT22;64402;44.708;37.644;2023-03-14T01:40:10;4.30;74.14
75786;DHT22;64402;44.708;37.644;2023-03-14T01:42:37;4.29;74.14
75786;DHT22;64402;44.708;37.644;2023-03-14T01:45:03;4.30;74.51
75786;DHT22;64402;44.708;37.644;2023-03-14T01:47:29;4.30;74.55
75786;DHT22;64402;44.708;37.644;2023-03-14T01:50:00;4.33;74.73
75786;DHT22;64402;44.708;37.644;2023-03-14T01:52:31;4.35;74.54
75786;DHT22;64402;44.708;37.644;2023-03-14T01:55:13;4.44;74.31
75786;DHT22;64402;44.708;37.644;2023-03-14T01:58:01;4.50;74.35
75786;DHT22;64402;44.708;37.644;2023-03-14T02:00:29;4.57;74.16
75786;DHT22;64402;44.708;37.644;2023-03-14T02:02:59;4.63;73.81
75786;DHT22;64402;44.708;37.644;2023-03-14T02:05:32;4.71;73.54
75786;DHT22;64402;44.708;37.644;2023-03-14T02:08:04;4.82;72.80
75786;DHT22;64402;44.708;37.644;2023-03-14T02:10:35;4.90;72.81
75786;DHT22;64402;44.708;37.644;2023-03-14T02:13:04;4.93;72.90
75786;DHT22;64402;44.708;37.644;2023-03-14T02:15:31;4.98;72.58
75786;DHT22;64402;44.708;37.644;2023-03-14T02:17:58;5.05;72.72
75786;DHT22;64402;44.708;37.644;2023-03-14T02:20:36;5.07;72.41
75786;DHT22;64402;44.708;37.644;2023-03-14T02:23:05;5.10;72.58
75786;DHT22;64402;44.708;37.644;2023-03-14T02:25:50;5.11;72.48
75786;DHT22;64402;44.708;37.644;2023-03-14T02:28:18;5.12;72.57
75786;DHT22;64402;44.708;37.644;2023-03-14T02:30:44;5.11;72.55
75786;DHT22;64402;44.708;37.644;2023-03-14T02:33:16;5.11;72.51
75786;DHT22;64402;44.708;37.644;2023-03-14T02:36:02;5.15;72.96
75786;DHT22;64402;44.708;37.644;2023-03-14T02:38:37;5.12;72.78
75786;DHT22;64402;44.708;37.644;2023-03-14T02:41:05;5.12;72.75
75786;DHT22;64402;44.708;37.644;2023-03-14T02:43:32;5.13;73.01
75786;DHT22;64402;44.708;37.644;2023-03-14T02:45:58;5.10;73.05
75786;DHT22;64402;44.708;37.644;2023-03-14T02:48:29;5.13;72.96
75786;DHT22;64402;44.708;37.644;2023-03-14T02:50:59;5.12;73.03
75786;DHT22;64402;44.708;37.644;2023-03-14T02:53:28;5.17;72.90
75786;DHT22;64402;44.708;37.644;2023-03-14T02:55:58;5.19;72.70
75786;DHT22;64402;44.708;37.644;2023-03-14T02:58:26;5.20;72.57
75786;DHT22;64402;44.708;37.644;2023-03-14T03:00:53;5.21;72.87
75786;DHT22;64402;44.708;37.644;2023-03-14T03:03:22;5.22;73.14
75786;DHT22;64402;44.708;37.644;2023-03-14T03:05:53;5.26;72.88
75786;DHT22;64402;44.708;37.644;2023-03-14T03:08:22;5.30;72.78
75786;DHT22;64402;44.708;37.644;2023-03-14T03:10:48;5.33;72.30
75786;DHT22;64402;44.708;37.644;2023-03-14T03:13:15;5.37;72.22
75786;DHT22;64402;44.708;37.644;2023-03-14T03:15:41;5.38;71.87
75786;DHT22;64402;44.708;37.644;2023-03-14T03:18:07;5.38;71.79
75786;DHT22;64402;44.708;37.644;2023-03-14T03:20:33;5.35;71.77
75786;DHT22;64402;44.708;37.644;2023-03-14T03:23:00;5.33;72.31
75786;DHT22;64402;44.708;37.644;2023-03-14T03:25:27;5.30;72.45
75786;DHT22;64402;44.708;37.644;2023-03-14T03:27:53;5.28;72.54
75786;DHT22;64402;44.708;37.644;2023-03-14T03:30:20;5.30;72.76
75786;DHT22;64402;44.708;37.644;2023-03-14T03:32:46;5.27;72.45
75786;DHT22;64402;44.708;37.644;2023-03-14T03:35:12;5.31;72.83
75786;DHT22;64402;44.708;37.644;2023-03-14T03:37:39;5.28;72.50
75786;DHT22;64402;44.708;37.644;2023-03-14T03:40:06;5.26;72.98
75786;DHT22;64402;44.708;37.644;2023-03-14T03:42:33;5.28;72.97
75786;DHT22;64402;44.708;37.644;2023-03-14T03:45:00;5.26;72.80
75786;DHT22;64402;44.708;37.644;2023-03-14T03:47:27;5.25;73.02
75786;DHT22;64402;44.708;37.644;2023-03-14T03:49:54;5.28;72.72
75786;DHT22;64402;44.708;37.644;2023-03-14T03:52:20;5.31;72.54
75786;DHT22;64402;44.708;37.644;2023-03-14T03:54:46;5.35;72.50
75786;DHT22;64402;44.708;37.644;2023-03-14T03:57:12;5.37;72.55
75786;DHT22;64402;44.708;37.644;2023-03-14T03:59:39;5.40;72.48
75786;DHT22;64402;44.708;37.644;2023-03-14T04:02:07;5.40;72.36
75786;DHT22;64402;44.708;37.644;2023-03-14T04:04:33;5.43;72.41
75786;DHT22;64402;44.708;37.644;2023-03-14T04:07:00;5.48;72.45
75786;DHT22;64402;44.708;37.644;2023-03-14T04:09:26;5.52;72.36
75786;DHT22;64402;44.708;37.644;2023-03-14T04:11:52;5.53;71.98
75786;DHT22;64402;44.708;37.644;2023-03-14T04:14:18;5.56;72.04
75786;DHT22;64402;44.708;37.644;2023-03-14T04:16:44;5.62;72.00
75786;DHT22;64402;44.708;37.644;2023-03-14T04:19:10;5.67;71.93
75786;DHT22;64402;44.708;37.644;2023-03-14T04:21:37;5.68;72.04
75786;DHT22;64402;44.708;37.644;2023-03-14T04:24:06;5.69;72.01
75786;DHT22;64402;44.708;37.644;2023-03-14T04:26:32;5.74;71.64
75786;DHT22;64402;44.708;37.644;2023-03-14T04:28:58;5.79;71.59
75786;DHT22;64402;44.708;37.644;2023-03-14T04:31:24;5.82;71.09
75786;DHT22;64402;44.708;37.644;2023-03-14T04:33:51;5.89;71.22
75786;DHT22;64402;44.708;37.644;2023-03-14T04:36:17;5.92;71.29
75786;DHT22;64402;44.708;37.644;2023-03-14T04:38:43;5.94;71.45
75786;DHT22;64402;44.708;37.644;2023-03-14T04:41:09;5.96;71.03
75786;DHT22;64402;44.708;37.644;2023-03-14T04:43:36;5.95;71.02
75786;DHT22;64402;44.708;37.644;2023-03-14T04:46:02;5.95;72.25
75786;DHT22;64402;44.708;37.644;2023-03-14T04:48:28;6.04;70.95
75786;DHT22;64402;44.708;37.644;2023-03-14T04:50:55;6.13;71.29
75786;DHT22;64402;44.708;37.644;2023-03-14T04:53:21;6.24;71.11
75786;DHT22;64402;44.708;37.644;2023-03-14T04:55:55;6.38;70.42
75786;DHT22;64402;44.708;37.644;2023-03-14T04:58:22;6.50;69.58
75786;DHT22;64402;44.708;37.644;2023-03-14T05:00:49;6.55;69.60
75786;DHT22;64402;44.708;37.644;2023-03-14T05:03:16;6.63;69.42
75786;DHT22;64402;44.708;37.644;2023-03-14T05:05:43;6.65;69.58
75786;DHT22;64402;44.708;37.644;2023-03-14T05:08:09;6.70;69.54
75786;DHT22;64402;44.708;37.644;2023-03-14T05:10:36;6.78;69.26
75786;DHT22;64402;44.708;37.644;2023-03-14T05:13:02;6.81;68.82
75786;DHT22;64402;44.708;37.644;2023-03-14T05:15:29;6.91;68.07
75786;DHT22;64402;44.708;37.644;2023-03-14T05:17:55;6.97;68.23
75786;DHT22;64402;44.708;37.644;2023-03-14T05:20:21;7.02;67.91
75786;DHT22;64402;44.708;37.644;2023-03-14T05:22:47;7.07;68.26
75786;DHT22;64402;44.708;37.644;2023-03-14T05:25:14;7.01;67.78
75786;DHT22;64402;44.708;37.644;2023-03-14T05:27:40;6.93;68.26
75786;DHT22;64402;44.708;37.644;2023-03-14T05:30:06;6.80;69.27
75786;DHT22;64402;44.708;37.644;2023-03-14T05:32:33;6.78;69.00
75786;DHT22;64402;44.708;37.644;2023-03-14T05:34:59;6.72;69.07
75786;DHT22;64402;44.708;37.644;2023-03-14T05:37:26;6.69;68.98
75786;DHT22;64402;44.708;37.644;2023-03-14T05:39:52;6.71;69.32
75786;DHT22;64402;44.708;37.644;2023-03-14T05:42:19;6.79;69.13
75786;DHT22;64402;44.708;37.644;2023-03-14T05:44:45;6.80;68.58
75786;DHT22;64402;44.708;37.644;2023-03-14T05:47:11;6.79;68.97
75786;DHT22;64402;44.708;37.644;2023-03-14T05:49:37;6.78;68.56
75786;DHT22;64402;44.708;37.644;2023-03-14T05:52:03;6.75;68.79
75786;DHT22;64402;44.708;37.644;2023-03-14T05:54:30;6.74;68.72
75786;DHT22;64402;44.708;37.644;2023-03-14T05:56:56;6.75;68.49
75786;DHT22;64402;44.708;37.644;2023-03-14T05:59:22;6.73;68.87
75786;DHT22;64402;44.708;37.644;2023-03-14T06:01:48;6.74;69.42
75786;DHT22;64402;44.708;37.644;2023-03-14T06:04:14;6.67;69.68
75786;DHT22;64402;44.708;37.644;2023-03-14T06:06:41;6.65;69.22
75786;DHT22;64402;44.708;37.644;2023-03-14T06:09:07;6.64;69.11
75786;DHT22;64402;44.708;37.644;2023-03-14T06:11:33;6.64;69.40
75786;DHT22;64402;44.708;37.644;2023-03-14T06:13:59;6.72;70.36
75786;DHT22;64402;44.708;37.644;2023-03-14T06:16:25;6.83;69.15
75786;DHT22;64402;44.708;37.644;2023-03-14T06:18:51;6.95;69.14
75786;DHT22;64402;44.708;37.644;2023-03-14T06:21:18;7.00;68.30
75786;DHT22;64402;44.708;37.644;2023-03-14T06:23:45;6.99;68.36
75786;DHT22;64402;44.708;37.644;2023-03-14T06:26:11;6.96;68.73
75786;DHT22;64402;44.708;37.644;2023-03-14T06:28:38;6.99;68.41
75786;DHT22;64402;44.708;37.644;2023-03-14T06:31:05;7.08;68.13
75786;DHT22;64402;44.708;37.644;2023-03-14T06:33:31;7.13;68.05
75786;DHT22;64402;44.708;37.644;2023-03-14T06:35:57;7.07;68.50
75786;DHT22;64402;44.708;37.644;2023-03-14T06:38:24;7.05;68.30
75786;DHT22;64402;44.708;37.644;2023-03-14T06:40:50;7.01;68.33
75786;DHT22;64402;44.708;37.644;2023-03-14T06:43:16;6.99;68.79
75786;DHT22;64402;44.708;37.644;2023-03-14T06:45:42;7.01;68.54
75786;DHT22;64402;44.708;37.644;2023-03-14T06:48:08;6.96;68.55
75786;DHT22;64402;44.708;37.644;2023-03-14T06:50:35;6.89;68.84
75786;DHT22;64402;44.708;37.644;2023-03-14T06:53:02;6.94;68.66
75786;DHT22;64402;44.708;37.644;2023-03-14T06:55:28;6.99;68.90
75786;DHT22;64402;44.708;37.644;2023-03-14T06:57:54;6.99;68.46
75786;DHT22;64402;44.708;37.644;2023-03-14T07:00:20;7.03;68.71
75786;DHT22;64402;44.708;37.644;2023-03-14T07:02:46;7.03;68.84
75786;DHT22;64402;44.708;37.644;2023-03-14T07:05:12;7.16;68.39
75786;DHT22;64402;44.708;37.644;2023-03-14T07:07:38;7.32;68.56
75786;DHT22;64402;44.708;37.644;2023-03-14T07:10:05;7.46;67.91
75786;DHT22;64402;44.708;37.644;2023-03-14T07:12:31;7.56;67.94
75786;DHT22;64402;44.708;37.644;2023-03-14T07:14:57;7.56;67.54
75786;DHT22;64402;44.708;37.644;2023-03-14T07:17:23;7.63;67.21
75786;DHT22;64402;44.708;37.644;2023-03-14T07:19:49;7.74;67.01
75786;DHT22;64402;44.708;37.644;2023-03-14T07:22:15;7.73;66.66
75786;DHT22;64402;44.708;37.644;2023-03-14T07:24:41;7.81;67.04
75786;DHT22;64402;44.708;37.644;2023-03-14T07:27:08;7.85;66.31
75786;DHT22;64402;44.708;37.644;2023-03-14T07:29:34;7.87;66.56
75786;DHT22;64402;44.708;37.644;2023-03-14T07:32:00;7.83;67.12
75786;DHT22;64402;44.708;37.644;2023-03-14T07:34:26;7.88;67.61
75786;DHT22;64402;44.708;37.644;2023-03-14T07:36:52;7.96;66.98
75786;DHT22;64402;44.708;37.644;2023-03-14T07:39:18;8.06;67.25
75786;DHT22;64402;44.708;37.644;2023-03-14T07:41:44;8.18;67.30
75786;DHT22;64402;44.708;37.644;2023-03-14T07:44:10;8.20;67.62
75786;DHT22;64402;44.708;37.644;2023-03-14T07:46:36;8.16;68.80
75786;DHT22;64402;44.708;37.644;2023-03-14T07:49:03;8.05;69.21
75786;DHT22;64402;44.708;37.644;2023-03-14T07:51:29;8.00;70.37
75786;DHT22;64402;44.708;37.644;2023-03-14T07:53:55;7.87;71.80
75786;DHT22;64402;44.708;37.644;2023-03-14T07:56:21;7.81;72.35
75786;DHT22;64402;44.708;37.644;2023-03-14T07:58:47;7.76;72.40
75786;DHT22;64402;44.708;37.644;2023-03-14T08:01:13;7.75;72.01
75786;DHT22;64402;44.708;37.644;2023-03-14T08:03:39;7.74;73.05
75786;DHT22;64402;44.708;37.644;2023-03-14T08:06:06;7.69;73.20
75786;DHT22;64402;44.708;37.644;2023-03-14T08:08:32;7.67;73.48
75786;DHT22;64402;44.708;37.644;2023-03-14T08:11:03;7.62;73.80
75786;DHT22;64402;44.708;37.644;2023-03-14T08:13:30;7.55;73.99
75786;DHT22;64402;44.708;37.644;2023-03-14T08:15:56;7.48;74.94
75786;DHT22;64402;44.708;37.644;2023-03-14T08:18:22;7.46;75.09
75786;DHT22;64402;44.708;37.644;2023-03-14T08:20:48;7.47;74.09
75786;DHT22;64402;44.708;37.644;2023-03-14T08:23:14;7.53;74.93
75786;DHT22;64402;44.708;37.644;2023-03-14T08:25:40;7.62;73.99
75786;DHT22;64402;44.708;37.644;2023-03-14T08:28:06;7.65;74.02
75786;DHT22;64402;44.708;37.644;2023-03-14T08:30:33;7.79;74.14
75786;DHT22;64402;44.708;37.644;2023-03-14T08:32:59;7.93;74.26
75786;DHT22;64402;44.708;37.644;2023-03-14T08:35:26;7.98;72.67
75786;DHT22;64402;44.708;37.644;2023-03-14T08:37:52;7.97;72.90
75786;DHT22;64402;44.708;37.644;2023-03-14T08:40:19;7.86;71.99
75786;DHT22;64402;44.708;37.644;2023-03-14T08:42:45;7.81;72.63
75786;DHT22;64402;44.708;37.644;2023-03-14T08:45:13;7.79;72.48
75786;DHT22;64402;44.708;37.644;2023-03-14T08:47:40;7.81;72.16
75786;DHT22;64402;44.708;37.644;2023-03-14T08:50:08;7.75;71.86
75786;DHT22;64402;44.708;37.644;2023-03-14T08:52:35;7.73;72.39
75786;DHT22;64402;44.708;37.644;2023-03-14T08:55:04;7.70;72.92
75786;DHT22;64402;44.708;37.644;2023-03-14T08:57:30;7.70;73.03
75786;DHT22;64402;44.708;37.644;2023-03-14T08:59:57;7.69;72.86
75786;DHT22;64402;44.708;37.644;2023-03-14T09:02:24;7.65;73.48
75786;DHT22;64402;44.708;37.644;2023-03-14T09:04:51;7.58;73.24
75786;DHT22;64402;44.708;37.644;2023-03-14T09:07:17;7.55;73.25
75786;DHT22;64402;44.708;37.644;2023-03-14T09:09:44;7.52;73.19
75786;DHT22;64402;44.708;37.644;2023-03-14T09:12:10;7.46;73.44
75786;DHT22;64402;44.708;37.644;2023-03-14T09:14:37;7.39;73.74
75786;DHT22;64402;44.708;37.644;2023-03-14T09:17:04;7.38;74.13
75786;DHT22;64402;44.708;37.644;2023-03-14T09:19:30;7.42;73.99
75786;DHT22;64402;44.708;37.644;2023-03-14T09:21:56;7.42;74.01
75786;DHT22;64402;44.708;37.644;2023-03-14T09:24:22;7.42;73.91
75786;DHT22;64402;44.708;37.644;2023-03-14T09:26:48;7.45;74.01
75786;DHT22;64402;44.708;37.644;2023-03-14T09:29:14;7.53;73.35
75786;DHT22;64402;44.708;37.644;2023-03-14T09:31:41;7.56;73.36
75786;DHT22;64402;44.708;37.644;2023-03-14T09:34:07;7.58;73.38
75786;DHT22;64402;44.708;37.644;2023-03-14T09:36:33;7.65;73.35
75786;DHT22;64402;44.708;37.644;2023-03-14T09:38:59;7.74;73.45
75786;DHT22;64402;44.708;37.644;2023-03-14T09:41:34;7.83;72.61
75786;DHT22;64402;44.708;37.644;2023-03-14T09:44:18;7.96;72.76
75786;DHT22;64402;44.708;37.644;2023-03-14T09:46:49;8.06;71.90
75786;DHT22;64402;44.708;37.644;2023-03-14T09:49:24;8.13;71.73
75786;DHT22;64402;44.708;37.644;2023-03-14T09:51:54;8.23;71.44
75786;DHT22;64402;44.708;37.644;2023-03-14T09:54:31;8.27;70.97
75786;DHT22;64402;44.708;37.644;2023-03-14T09:56:58;8.36;71.39
75786;DHT22;64402;44.708;37.644;2023-03-14T09:59:26;8.47;71.25
75786;DHT22;64402;44.708;37.644;2023-03-14T10:01:58;8.55;70.77
75786;DHT22;64402;44.708;37.644;2023-03-14T10:04:26;8.53;71.11
75786;DHT22;64402;44.708;37.644;2023-03-14T10:06:56;8.58;71.17
75786;DHT22;64402;44.708;37.644;2023-03-14T10:09:23;8.52;70.68
75786;DHT22;64402;44.708;37.644;2023-03-14T10:11:56;8.55;70.81
75786;DHT22;64402;44.708;37.644;2023-03-14T10:14:37;8.58;70.45
75786;DHT22;64402;44.708;37.644;2023-03-14T10:17:12;8.61;70.85
75786;DHT22;64402;44.708;37.644;2023-03-14T10:19:58;8.55;71.13
75786;DHT22;64402;44.708;37.644;2023-03-14T10:22:31;8.60;70.84
75786;DHT22;64402;44.708;37.644;2023-03-14T10:25:05;8.61;70.60
75786;DHT22;64402;44.708;37.644;2023-03-14T10:27:35;8.62;70.69
75786;DHT22;64402;44.708;37.644;2023-03-14T10:30:06;8.64;70.48
75786;DHT22;64402;44.708;37.644;2023-03-14T10:32:35;8.70;70.29
75786;DHT22;64402;44.708;37.644;2023-03-14T10:35:19;8.75;70.19
75786;DHT22;64402;44.708;37.644;2023-03-14T10:37:58;8.68;70.52
75786;DHT22;64402;44.708;37.644;2023-03-14T10:40:34;8.66;70.03
75786;DHT22;64402;44.708;37.644;2023-03-14T10:43:06;8.75;70.34
75786;DHT22;64402;44.708;37.644;2023-03-14T10:45:37;8.87;70.23
75786;DHT22;64402;44.708;37.644;2023-03-14T10:48:31;8.97;69.99
75786;DHT22;64402;44.708;37.644;2023-03-14T10:51:07;9.07;69.08
75786;DHT22;64402;44.708;37.644;2023-03-14T10:56:18;9.27;68.68
75786;DHT22;64402;44.708;37.644;2023-03-14T10:58:46;9.34;69.00
75786;DHT22;64402;44.708;37.644;2023-03-14T11:02:03;9.40;67.82
75786;DHT22;64402;44.708;37.644;2023-03-14T11:07:52;9.59;67.14
75786;DHT22;64402;44.708;37.644;2023-03-14T11:10:08;9.82;66.17
75786;DHT22;64402;44.708;37.644;2023-03-14T11:15:17;10.15;64.82
75786;DHT22;64402;44.708;37.644;2023-03-14T11:20:32;10.06;65.26
75786;DHT22;64402;44.708;37.644;2023-03-14T11:23:13;10.07;64.70
75786;DHT22;64402;44.708;37.644;2023-03-14T11:25:47;10.18;65.36
75786;DHT22;64402;44.708;37.644;2023-03-14T11:28:36;10.52;64.43
75786;DHT22;64402;44.708;37.644;2023-03-14T11:36:16;11.66;60.82
75786;DHT22;64402;44.708;37.644;2023-03-14T11:38:53;11.92;60.37
75786;DHT22;64402;44.708;37.644;2023-03-14T11:41:49;12.11;59.90
75786;DHT22;64402;44.708;37.644;2023-03-14T11:50:03;14.00;53.76
75786;DHT22;64402;44.708;37.644;2023-03-14T11:55:25;14.68;52.00
75786;DHT22;64402;44.708;37.644;2023-03-14T11:58:26;13.97;52.99
75786;DHT22;64402;44.708;37.644;2023-03-14T12:00:55;13.40;55.77
75786;DHT22;64402;44.708;37.644;2023-03-14T12:08:41;12.43;58.98
75786;DHT22;64402;44.708;37.644;2023-03-14T12:13:53;12.26;59.73
75786;DHT22;64402;44.708;37.644;2023-03-14T12:18:51;12.43;59.20
75786;DHT22;64402;44.708;37.644;2023-03-14T12:21:20;12.58;59.01
75786;DHT22;64402;44.708;37.644;2023-03-14T12:23:52;12.85;58.30
75786;DHT22;64402;44.708;37.644;2023-03-14T12:39:45;12.92;57.64
75786;DHT22;64402;44.708;37.644;2023-03-14T12:44:50;12.72;58.75
75786;DHT22;64402;44.708;37.644;2023-03-14T12:49:50;12.37;59.83
75786;DHT22;64402;44.708;37.644;2023-03-14T12:52:33;12.20;60.48
75786;DHT22;64402;44.708;37.644;2023-03-14T12:57:57;12.20;60.51
75786;DHT22;64402;44.708;37.644;2023-03-14T13:00:33;12.56;59.75
75786;DHT22;64402;44.708;37.644;2023-03-14T13:03:12;13.19;57.80
75786;DHT22;64402;44.708;37.644;2023-03-14T13:05:58;13.82;55.52
75786;DHT22;64402;44.708;37.644;2023-03-14T13:08:43;13.96;54.05
75786;DHT22;64402;44.708;37.644;2023-03-14T13:11:16;14.04;54.06
75786;DHT22;64402;44.708;37.644;2023-03-14T13:13:56;13.69;55.78
75786;DHT22;64402;44.708;37.644;2023-03-14T13:16:23;13.59;56.71
75786;DHT22;64402;44.708;37.644;2023-03-14T13:19:19;13.55;56.09
75786;DHT22;64402;44.708;37.644;2023-03-14T13:21:46;14.11;55.25
75786;DHT22;64402;44.708;37.644;2023-03-14T13:24:39;14.69;51.21
75786;DHT22;64402;44.708;37.644;2023-03-14T13:31:22;14.99;51.32
75786;DHT22;64402;44.708;37.644;2023-03-14T13:34:04;14.56;51.63
75786;DHT22;64402;44.708;37.644;2023-03-14T13:36:30;14.64;52.11
75786;DHT22;64402;44.708;37.644;2023-03-14T13:38:59;14.51;52.24
75786;DHT22;64402;44.708;37.644;2023-03-14T13:41:27;14.62;52.65
75786;DHT22;64402;44.708;37.644;2023-03-14T13:44:05;14.68;51.75
75786;DHT22;64402;44.708;37.644;2023-03-14T13:46:36;14.83;51.63
75786;DHT22;64402;44.708;37.644;2023-03-14T13:49:05;15.16;50.37
75786;DHT22;64402;44.708;37.644;2023-03-14T13:51:32;15.33;50.82
75786;DHT22;64402;44.708;37.644;2023-03-14T13:53:59;15.53;49.73
75786;DHT22;64402;44.708;37.644;2023-03-14T13:56:27;15.25;50.21
75786;DHT22;64402;44.708;37.644;2023-03-14T13:58:54;15.19;50.05
75786;DHT22;64402;44.708;37.644;2023-03-14T14:03:55;17.28;45.77
75786;DHT22;64402;44.708;37.644;2023-03-14T14:06:36;18.61;40.94
75786;DHT22;64402;44.708;37.644;2023-03-14T14:09:39;19.69;38.19
75786;DHT22;64402;44.708;37.644;2023-03-14T14:12:28;19.94;37.78
75786;DHT22;64402;44.708;37.644;2023-03-14T14:15:10;20.24;37.88
75786;DHT22;64402;44.708;37.644;2023-03-14T14:17:47;20.83;36.10
75786;DHT22;64402;44.708;37.644;2023-03-14T14:22:48;21.05;35.60
75786;DHT22;64402;44.708;37.644;2023-03-14T14:25:15;21.09;34.77
75786;DHT22;64402;44.708;37.644;2023-03-14T14:27:46;21.18;35.21
75786;DHT22;64402;44.708;37.644;2023-03-14T14:32:46;20.85;35.02
75786;DHT22;64402;44.708;37.644;2023-03-14T14:35:23;20.62;35.82
75786;DHT22;64402;44.708;37.644;2023-03-14T14:37:50;20.37;36.81
75786;DHT22;64402;44.708;37.644;2023-03-14T14:40:23;20.24;37.84
75786;DHT22;64402;44.708;37.644;2023-03-14T14:42:51;19.96;37.24
75786;DHT22;64402;44.708;37.644;2023-03-14T14:45:27;19.36;38.06
75786;DHT22;64402;44.708;37.644;2023-03-14T14:50:37;19.11;38.72
75786;DHT22;64402;44.708;37.644;2023-03-14T14:55:58;18.08;41.55
75786;DHT22;64402;44.708;37.644;2023-03-14T14:58:36;17.39;43.80
75786;DHT22;64402;44.708;37.644;2023-03-14T15:01:23;16.94;44.32
75786;DHT22;64402;44.708;37.644;2023-03-14T15:03:53;16.66;45.83
75786;DHT22;64402;44.708;37.644;2023-03-14T15:06:26;16.04;46.28
75786;DHT22;64402;44.708;37.644;2023-03-14T15:09:04;15.63;48.02
75786;DHT22;64402;44.708;37.644;2023-03-14T15:11:38;14.92;50.05
75786;DHT22;64402;44.708;37.644;2023-03-14T15:14:08;14.19;51.99
75786;DHT22;64402;44.708;37.644;2023-03-14T15:16:39;13.38;54.61
75786;DHT22;64402;44.708;37.644;2023-03-14T15:19:21;12.87;57.00
75786;DHT22;64402;44.708;37.644;2023-03-14T15:21:53;12.45;57.65
75786;DHT22;64402;44.708;37.644;2023-03-14T15:24:24;12.28;58.45
75786;DHT22;64402;44.708;37.644;2023-03-14T15:26:55;12.15;58.66
75786;DHT22;64402;44.708;37.644;2023-03-14T15:29:23;12.08;59.30
75786;DHT22;64402;44.708;37.644;2023-03-14T15:31:49;11.98;59.54
75786;DHT22;64402;44.708;37.644;2023-03-14T15:34:15;11.88;59.94
75786;DHT22;64402;44.708;37.644;2023-03-14T15:36:42;11.76;60.29
75786;DHT22;64402;44.708;37.644;2023-03-14T15:39:10;11.64;61.02
75786;DHT22;64402;44.708;37.644;2023-03-14T15:41:37;11.60;61.28
75786;DHT22;64402;44.708;37.644;2023-03-14T15:44:04;11.49;62.12
75786;DHT22;64402;44.708;37.644;2023-03-14T15:46:31;11.33;62.86
75786;DHT22;64402;44.708;37.644;2023-03-14T15:48:57;11.24;62.98
75786;DHT22;64402;44.708;37.644;2023-03-14T15:51:24;11.22;63.15
75786;DHT22;64402;44.708;37.644;2023-03-14T15:53:50;11.14;63.57
75786;DHT22;64402;44.708;37.644;2023-03-14T15:56:19;11.03;62.97
75786;DHT22;64402;44.708;37.644;2023-03-14T15:58:45;11.02;63.96
75786;DHT22;64402;44.708;37.644;2023-03-14T16:01:16;11.03;63.69
75786;DHT22;64402;44.708;37.644;2023-03-14T16:03:49;10.96;63.97
75786;DHT22;64402;44.708;37.644;2023-03-14T16:06:23;10.97;64.39
75786;DHT22;64402;44.708;37.644;2023-03-14T16:08:53;10.98;64.35
75786;DHT22;64402;44.708;37.644;2023-03-14T16:11:20;10.90;64.53
75786;DHT22;64402;44.708;37.644;2023-03-14T16:13:46;10.84;64.59
75786;DHT22;64402;44.708;37.644;2023-03-14T16:16:14;10.81;64.39
75786;DHT22;64402;44.708;37.644;2023-03-14T16:18:40;10.75;65.63
75786;DHT22;64402;44.708;37.644;2023-03-14T16:21:18;10.66;65.37
75786;DHT22;64402;44.708;37.644;2023-03-14T16:23:44;10.58;65.58
75786;DHT22;64402;44.708;37.644;2023-03-14T16:26:16;10.56;66.07
75786;DHT22;64402;44.708;37.644;2023-03-14T16:28:44;10.52;65.75
75786;DHT22;64402;44.708;37.644;2023-03-14T16:31:14;10.43;65.79
75786;DHT22;64402;44.708;37.644;2023-03-14T16:33:42;10.38;66.17
75786;DHT22;64402;44.708;37.644;2023-03-14T16:36:10;10.31;66.86
75786;DHT22;64402;44.708;37.644;2023-03-14T16:38:39;10.19;67.02
75786;DHT22;64402;44.708;37.644;2023-03-14T16:41:09;9.97;67.28
75786;DHT22;64402;44.708;37.644;2023-03-14T16:43:39;9.81;68.38
75786;DHT22;64402;44.708;37.644;2023-03-14T16:46:15;9.70;68.71
75786;DHT22;64402;44.708;37.644;2023-03-14T16:48:42;9.69;68.78
75786;DHT22;64402;44.708;37.644;2023-03-14T16:51:09;9.70;68.46
75786;DHT22;64402;44.708;37.644;2023-03-14T16:53:35;9.70;68.68
75786;DHT22;64402;44.708;37.644;2023-03-14T16:56:02;9.71;69.06
75786;DHT22;64402;44.708;37.644;2023-03-14T16:58:28;9.68;69.78
75786;DHT22;64402;44.708;37.644;2023-03-14T17:00:57;9.64;70.02
75786;DHT22;64402;44.708;37.644;2023-03-14T17:03:24;9.57;70.98
75786;DHT22;64402;44.708;37.644;2023-03-14T17:05:52;9.52;70.63
75786;DHT22;64402;44.708;37.644;2023-03-14T17:08:19;9.50;70.40
75786;DHT22;64402;44.708;37.644;2023-03-14T17:10:46;9.50;71.06
75786;DHT22;64402;44.708;37.644;2023-03-14T17:13:13;9.45;70.82
75786;DHT22;64402;44.708;37.644;2023-03-14T17:15:51;9.44;71.54
75786;DHT22;64402;44.708;37.644;2023-03-14T17:18:17;9.40;71.06
75786;DHT22;64402;44.708;37.644;2023-03-14T17:20:44;9.44;71.06
75786;DHT22;64402;44.708;37.644;2023-03-14T17:23:10;9.44;70.77
75786;DHT22;64402;44.708;37.644;2023-03-14T17:25:36;9.49;70.72
75786;DHT22;64402;44.708;37.644;2023-03-14T17:28:05;9.44;70.96
75786;DHT22;64402;44.708;37.644;2023-03-14T17:30:31;9.33;71.55
75786;DHT22;64402;44.708;37.644;2023-03-14T17:32:58;9.26;71.68
75786;DHT22;64402;44.708;37.644;2023-03-14T17:35:24;9.26;71.46
75786;DHT22;64402;44.708;37.644;2023-03-14T17:37:51;9.23;72.16
75786;DHT22;64402;44.708;37.644;2023-03-14T17:40:18;9.24;72.12
75786;DHT22;64402;44.708;37.644;2023-03-14T17:42:44;9.19;71.81
75786;DHT22;64402;44.708;37.644;2023-03-14T17:45:11;9.15;72.02
75786;DHT22;64402;44.708;37.644;2023-03-14T17:47:37;9.06;72.47
75786;DHT22;64402;44.708;37.644;2023-03-14T17:50:04;8.94;73.55
75786;DHT22;64402;44.708;37.644;2023-03-14T17:52:32;8.83;73.75
75786;DHT22;64402;44.708;37.644;2023-03-14T17:54:59;8.78;74.05
75786;DHT22;64402;44.708;37.644;2023-03-14T17:57:26;8.75;74.44
75786;DHT22;64402;44.708;37.644;2023-03-14T17:59:53;8.63;74.60
75786;DHT22;64402;44.708;37.644;2023-03-14T18:02:20;8.61;74.69
75786;DHT22;64402;44.708;37.644;2023-03-14T18:04:47;8.55;74.90
75786;DHT22;64402;44.708;37.644;2023-03-14T18:07:13;8.49;75.08
75786;DHT22;64402;44.708;37.644;2023-03-14T18:09:40;8.47;75.09
75786;DHT22;64402;44.708;37.644;2023-03-14T18:12:07;8.32;75.78
75786;DHT22;64402;44.708;37.644;2023-03-14T18:14:37;8.26;76.47
75786;DHT22;64402;44.708;37.644;2023-03-14T18:17:04;8.17;76.03
75786;DHT22;64402;44.708;37.644;2023-03-14T18:19:31;8.07;76.35